Athelstane, Wisconsin
Current Conditions -  °F | °C
As of 10:54 AM on Friday 24 Oct 2014 (Local Time) from KIMT Reporting Station
Overcast Overcast  
Wind Chill: 45°   Ceiling: 200
Heat Index: 45°   Visibility: 7mi
Dew Point: 43°   Wind: 0mph
Humidity: 93%   Direction: NA
Pressure: 29.97"   Gusts: NA
Location:  45.42°N, 88.1°W
Report Text: KIMT 241554Z AUTO 00000KT 7SM OVC002 07/06 A2997 RMK AO2 SLP156 T00720061
Loading
Personal Weather Stations






























Interactive Weather Map
Tropical Storm Tracking
New forecast layout! Learn more

10-Day Weather Forecast

Advertisements
Track Severe Weather on mobile